Time;durP1;ratioP1;P1;durP2;ratioP2;P2;SDS_P1;SDS_P2;PMS_P1;PMS_P2;Temp;Humidity;BMP_temperature;BMP_pressure;BME280_temperature;BME280_humidity;BME280_pressure;Samples;Min_cycle;Max_cycle;Signal;HPM_P1;HPM_P2
2022/02/07 00:02:00;;;;;;;10.43;1.70;;;22.40;63.30;;;;;;5029710;28;20283;-74
2022/02/07 00:04:34;;;;;;;6.70;1.73;;;22.60;64.00;;;;;;5030905;28;20187;-75
2022/02/07 00:07:01;;;;;;;6.83;1.77;;;22.90;62.90;;;;;;5029854;28;20176;-76
2022/02/07 00:09:29;;;;;;;10.33;1.67;;;22.90;63.30;;;;;;5030234;28;20547;-76
2022/02/07 00:11:57;;;;;;;7.07;1.60;;;22.80;63.20;;;;;;5034151;28;20180;-76
2022/02/07 00:14:24;;;;;;;5.83;1.30;;;22.60;64.90;;;;;;5034820;28;20179;-77
2022/02/07 00:16:51;;;;;;;9.20;1.80;;;22.60;65.40;;;;;;5032137;28;20216;-73
2022/02/07 00:19:24;;;;;;;5.93;1.20;;;22.70;63.60;;;;;;5030365;28;20263;-77
2022/02/07 00:21:51;;;;;;;4.00;1.20;;;22.80;61.40;;;;;;5030666;28;20573;-75
2022/02/07 00:24:18;;;;;;;3.90;0.80;;;23.10;60.70;;;;;;5033271;28;20177;-81
2022/02/07 00:26:46;;;;;;;3.57;1.00;;;23.10;58.30;;;;;;5030369;28;20180;-75
2022/02/07 00:29:15;;;;;;;3.83;0.90;;;23.20;58.80;;;;;;5029036;28;20655;-76
2022/02/07 00:31:42;;;;;;;4.10;1.20;;;23.30;57.20;;;;;;5032168;28;20224;-75
2022/02/07 00:34:10;;;;;;;6.23;1.67;;;23.40;58.10;;;;;;5030413;28;20195;-77
2022/02/07 00:36:38;;;;;;;5.77;1.10;;;23.60;57.00;;;;;;5031708;28;20212;-74
2022/02/07 00:39:08;;;;;;;4.00;1.10;;;23.70;57.00;;;;;;5033552;28;20173;-79
2022/02/07 00:41:47;;;;;;;7.47;1.33;;;23.40;56.20;;;;;;5031922;28;20282;-77
2022/02/07 00:44:18;;;;;;;4.53;1.20;;;23.80;57.60;;;;;;5032054;28;20199;-74
2022/02/07 00:46:57;;;;;;;6.67;1.10;;;24.00;54.00;;;;;;5036672;28;20195;-76
2022/02/07 00:49:27;;;;;;;7.43;1.47;;;24.60;51.40;;;;;;5032052;28;20635;-73
2022/02/07 00:51:54;;;;;;;3.87;1.20;;;24.60;50.40;;;;;;5033461;28;20180;-72
2022/02/07 00:54:22;;;;;;;4.80;1.27;;;24.80;51.20;;;;;;5024991;28;20212;-73
2022/02/07 00:56:49;;;;;;;4.97;1.20;;;25.40;52.70;;;;;;5034764;28;20216;-73
2022/02/07 00:59:17;;;;;;;7.57;1.33;;;25.50;51.80;;;;;;5031399;28;20530;-74
2022/02/07 01:01:44;;;;;;;6.27;1.53;;;25.00;51.30;;;;;;5031463;28;20655;-73
2022/02/07 01:04:11;;;;;;;6.23;1.40;;;24.70;50.90;;;;;;5030977;28;20643;-73
2022/02/07 01:06:39;;;;;;;8.97;1.30;;;24.30;53.40;;;;;;5027803;28;20188;-75
2022/02/07 01:09:19;;;;;;;6.20;1.40;;;23.90;53.80;;;;;;5031176;28;20299;-73
2022/02/07 01:12:09;;;;;;;8.20;1.83;;;24.20;52.70;;;;;;5033403;28;20188;-72
2022/02/07 01:14:52;;;;;;;8.23;1.80;;;24.40;53.10;;;;;;5028799;28;20581;-72
2022/02/07 01:20:35;;;;;;;7.07;1.40;;;24.10;53.70;;;;;;5028573;28;20539;-73
2022/02/07 01:48:06;;;;;;;5.97;1.37;;;23.70;55.90;;;;;;5032515;28;20215;-73
2022/02/07 01:55:57;;;;;;;3.73;1.20;;;24.00;52.80;;;;;;5034272;28;20231;-74
2022/02/07 01:58:25;;;;;;;2.93;1.00;;;24.70;53.00;;;;;;5029629;28;20548;-73
2022/02/07 02:00:53;;;;;;;7.23;1.30;;;25.00;51.80;;;;;;5034824;28;20185;-73
2022/02/07 02:03:20;;;;;;;2.80;1.00;;;24.90;51.90;;;;;;5033066;28;20812;-72
2022/02/07 02:05:48;;;;;;;4.53;1.17;;;24.60;53.30;;;;;;5033575;28;20582;-72
2022/02/07 02:08:16;;;;;;;7.20;1.40;;;24.30;50.90;;;;;;5033993;28;20510;-73
2022/02/07 02:10:46;;;;;;;5.93;1.30;;;24.30;50.10;;;;;;5034116;28;20187;-73
2022/02/07 02:14:19;;;;;;;4.97;1.47;;;24.60;49.80;;;;;;5034031;28;20180;-74
2022/02/07 02:16:19;;;;;;;5.53;1.10;;;24.80;55.00;;;;;;5022393;28;20214;-77
2022/02/07 02:35:35;;;;;;;8.33;2.10;;;20.60;84.40;;;;;;5032138;28;20184;-77
2022/02/07 02:38:08;;;;;;;5.73;1.33;;;20.50;84.20;;;;;;5025308;28;20217;-73
2022/02/07 02:46:06;;;;;;;5.17;1.37;;;20.90;77.60;;;;;;5033676;28;20249;-71
2022/02/07 02:48:40;;;;;;;8.57;1.20;;;21.10;76.70;;;;;;5033056;28;20611;-72
2022/02/07 02:51:09;;;;;;;7.60;1.60;;;21.30;76.50;;;;;;5032944;28;20184;-73
2022/02/07 02:53:37;;;;;;;4.17;1.27;;;21.90;74.70;;;;;;5035760;28;20185;-71
2022/02/07 02:56:04;;;;;;;3.43;1.53;;;22.20;69.40;;;;;;5033105;28;20203;-74
2022/02/07 02:58:32;;;;;;;4.83;1.50;;;22.80;66.60;;;;;;5033212;28;20271;-74
2022/02/07 03:00:59;;;;;;;3.97;1.30;;;23.20;67.60;;;;;;5033446;28;20183;-75
2022/02/07 03:03:27;;;;;;;2.83;1.10;;;23.80;63.30;;;;;;5032363;28;20628;-78
2022/02/07 03:05:54;;;;;;;4.77;1.03;;;24.20;62.20;;;;;;5035404;28;20185;-79
2022/02/07 03:08:22;;;;;;;5.97;1.50;;;24.00;63.40;;;;;;5034085;28;20578;-76
2022/02/07 03:14:06;;;;;;;6.20;1.50;;;24.00;64.60;;;;;;5030782;28;20180;-76
2022/02/07 03:18:52;;;;;;;5.80;1.33;;;24.50;60.80;;;;;;5033028;28;20194;-77
2022/02/07 03:21:20;;;;;;;5.50;1.47;;;24.50;60.50;;;;;;5032813;28;20663;-74
2022/02/07 03:23:47;;;;;;;8.07;1.40;;;24.30;60.40;;;;;;5033045;28;20180;-77
2022/02/07 03:26:17;;;;;;;5.33;1.00;;;24.30;60.40;;;;;;5023548;28;20180;-75
2022/02/07 03:28:48;;;;;;;7.60;1.40;;;24.40;59.90;;;;;;5030610;28;20552;-74
2022/02/07 03:31:19;;;;;;;4.83;1.10;;;24.40;60.30;;;;;;5031048;28;20184;-75
2022/02/07 03:33:47;;;;;;;5.30;1.30;;;23.90;59.90;;;;;;5028830;28;20238;-73
2022/02/07 03:36:16;;;;;;;4.60;1.37;;;23.30;64.70;;;;;;5031363;28;20303;-77
2022/02/07 03:38:45;;;;;;;6.57;1.73;;;22.30;69.20;;;;;;5030106;28;20234;-77
2022/02/07 03:41:12;;;;;;;9.73;1.50;;;22.00;73.20;;;;;;5028391;28;20232;-77
2022/02/07 03:43:40;;;;;;;6.80;1.60;;;21.70;75.50;;;;;;5031370;28;20192;-78
2022/02/07 03:46:07;;;;;;;6.13;1.47;;;21.80;75.40;;;;;;5031706;28;20239;-76
2022/02/07 03:48:35;;;;;;;7.53;1.50;;;21.80;73.90;;;;;;5032066;28;20188;-75
2022/02/07 03:51:02;;;;;;;7.07;1.53;;;22.10;74.70;;;;;;5031282;28;20180;-79
2022/02/07 03:53:29;;;;;;;6.13;1.43;;;22.30;72.70;;;;;;5029970;28;20184;-77
2022/02/07 03:55:57;;;;;;;6.23;1.40;;;22.40;71.10;;;;;;5029600;28;20631;-77
2022/02/07 03:58:25;;;;;;;6.53;1.30;;;22.70;72.30;;;;;;5029985;28;20544;-78
2022/02/07 04:00:54;;;;;;;6.60;1.37;;;22.70;68.70;;;;;;5033716;28;20193;-78
2022/02/07 04:03:27;;;;;;;4.67;1.13;;;22.80;69.30;;;;;;5031854;28;20215;-77
2022/02/07 04:06:13;;;;;;;4.90;1.60;;;23.00;68.00;;;;;;5032294;28;20265;-75
2022/02/07 04:08:44;;;;;;;10.00;2.10;;;23.60;67.80;;;;;;5034312;28;20184;-75
2022/02/07 04:11:33;;;;;;;10.30;1.97;;;24.20;65.30;;;;;;5034102;28;20186;-76
2022/02/07 04:14:00;;;;;;;9.13;1.87;;;24.40;64.60;;;;;;5034271;28;20203;-76
2022/02/07 04:16:35;;;;;;;5.43;1.77;;;24.30;65.30;;;;;;5034572;28;20258;-75
2022/02/07 04:19:07;;;;;;;11.53;1.57;;;24.00;65.40;;;;;;5034463;28;20262;-76
2022/02/07 04:21:38;;;;;;;6.70;1.50;;;23.70;64.60;;;;;;5031726;28;20243;-73
2022/02/07 04:24:05;;;;;;;6.13;1.40;;;23.40;63.50;;;;;;5030774;28;20181;-73
2022/02/07 04:26:32;;;;;;;10.57;2.00;;;24.00;60.80;;;;;;5033481;28;20198;-75
2022/02/07 04:29:00;;;;;;;8.07;1.63;;;24.30;57.60;;;;;;5031153;28;20561;-76
2022/02/07 04:31:27;;;;;;;5.87;1.37;;;24.80;56.90;;;;;;5031375;28;20176;-75
2022/02/07 04:33:55;;;;;;;9.30;1.83;;;24.70;57.50;;;;;;5030671;28;20191;-72
2022/02/07 04:36:23;;;;;;;7.90;2.13;;;23.70;59.50;;;;;;5033746;28;20220;-74
2022/02/07 04:38:50;;;;;;;12.53;2.23;;;23.40;64.20;;;;;;5031423;28;20184;-76
2022/02/07 04:41:18;;;;;;;6.83;1.83;;;23.00;69.10;;;;;;5032181;28;20236;-77
2022/02/07 04:43:53;;;;;;;9.23;1.67;;;22.80;70.20;;;;;;5034519;28;20188;-73
2022/02/07 04:54:16;;;;;;;11.33;2.07;;;24.00;65.90;;;;;;5030948;28;20264;-74
2022/02/07 05:00:26;;;;;;;8.17;1.73;;;23.80;66.70;;;;;;5030439;28;20222;-74
2022/02/07 05:02:44;;;;;;;8.67;2.23;;;23.60;67.40;;;;;;5023294;28;20204;-74
2022/02/07 05:13:44;;;;;;;10.50;2.57;;;24.10;66.50;;;;;;5030721;28;20187;-75
2022/02/07 05:16:28;;;;;;;14.83;2.80;;;25.20;59.80;;;;;;5025566;28;20207;-75
2022/02/07 05:19:00;;;;;;;15.07;2.73;;;24.50;61.90;;;;;;5033250;28;20192;-76
2022/02/07 05:21:28;;;;;;;16.27;3.03;;;24.20;62.70;;;;;;5035390;28;20188;-74
2022/02/07 05:23:55;;;;;;;7.80;1.67;;;23.90;59.40;;;;;;5037157;28;21935;-75
2022/02/07 05:26:24;;;;;;;10.97;2.00;;;23.80;57.50;;;;;;5038025;28;20188;-75
2022/02/07 05:28:52;;;;;;;5.00;1.63;;;23.90;55.70;;;;;;5036543;28;20204;-76
2022/02/07 05:31:21;;;;;;;10.53;2.30;;;23.80;55.90;;;;;;5034777;28;21427;-75
2022/02/07 05:33:48;;;;;;;9.30;2.00;;;23.80;57.30;;;;;;5034999;28;20179;-79
2022/02/07 05:36:16;;;;;;;11.83;2.13;;;23.70;57.20;;;;;;5035545;28;20247;-73
2022/02/07 05:38:44;;;;;;;8.70;1.90;;;23.70;57.90;;;;;;5033879;28;20189;-73
2022/02/07 05:41:13;;;;;;;11.93;2.20;;;23.50;57.80;;;;;;5033832;28;20232;-75
2022/02/07 05:43:44;;;;;;;10.20;2.30;;;23.40;58.00;;;;;;5031089;28;20238;-72
2022/02/07 05:46:11;;;;;;;15.43;2.37;;;23.20;59.00;;;;;;5037347;28;20223;-73
2022/02/07 05:48:39;;;;;;;17.27;2.67;;;22.90;63.30;;;;;;5034792;28;20192;-73
2022/02/07 05:51:07;;;;;;;13.27;2.83;;;22.80;65.80;;;;;;5037923;28;20181;-74
2022/02/07 05:53:34;;;;;;;15.87;2.57;;;22.50;68.10;;;;;;5035433;28;20670;-75
2022/02/07 05:56:02;;;;;;;12.63;2.90;;;22.60;67.60;;;;;;5032627;28;20211;-73
2022/02/07 05:58:29;;;;;;;17.30;2.43;;;22.50;67.30;;;;;;5036421;28;20264;-74
2022/02/07 06:00:57;;;;;;;12.80;3.07;;;22.50;67.60;;;;;;5030963;28;20184;-74
2022/02/07 06:03:24;;;;;;;11.07;2.33;;;22.30;69.50;;;;;;5036153;28;20187;-75
2022/02/07 06:05:52;;;;;;;14.53;2.23;;;22.20;71.70;;;;;;5035324;28;20181;-73
2022/02/07 06:08:19;;;;;;;11.47;2.10;;;21.90;70.10;;;;;;5035328;28;20231;-73
2022/02/07 06:10:47;;;;;;;13.17;2.77;;;21.80;68.50;;;;;;5033568;28;20184;-74
2022/02/07 06:13:18;;;;;;;10.30;1.93;;;21.90;68.70;;;;;;5039436;28;20546;-72
2022/02/07 06:15:46;;;;;;;11.83;2.30;;;22.00;66.90;;;;;;5034147;28;20193;-74
2022/02/07 06:18:17;;;;;;;11.07;2.17;;;22.60;63.50;;;;;;5032107;28;20667;-75
2022/02/07 06:20:44;;;;;;;13.90;2.17;;;23.70;60.40;;;;;;5034745;28;20275;-75
2022/02/07 06:23:12;;;;;;;7.60;1.80;;;24.00;59.20;;;;;;5032198;28;20643;-76
2022/02/07 06:25:39;;;;;;;8.87;1.77;;;24.80;56.70;;;;;;5034139;28;20234;-75
2022/02/07 06:28:07;;;;;;;11.43;1.50;;;26.70;52.30;;;;;;5032350;28;20191;-76
2022/02/07 06:30:34;;;;;;;12.50;2.00;;;27.80;47.80;;;;;;5029057;28;20275;-74
2022/02/07 06:33:01;;;;;;;10.77;2.20;;;28.10;46.50;;;;;;5035333;28;20191;-72
2022/02/07 06:35:29;;;;;;;5.60;1.80;;;27.80;46.30;;;;;;5038940;28;20638;-75
2022/02/07 06:37:56;;;;;;;10.07;1.83;;;26.30;49.40;;;;;;5033322;28;20555;-75
2022/02/07 06:40:23;;;;;;;4.93;1.17;;;25.90;50.20;;;;;;5037406;28;20279;-74
2022/02/07 06:42:51;;;;;;;11.07;1.67;;;25.00;51.90;;;;;;5037121;28;20272;-74
2022/02/07 06:45:18;;;;;;;10.50;1.90;;;24.50;54.20;;;;;;5025688;28;20184;-75
2022/02/07 06:47:45;;;;;;;10.17;2.30;;;24.10;55.00;;;;;;5033315;28;20219;-76
2022/02/07 06:50:13;;;;;;;7.17;2.03;;;23.80;56.40;;;;;;5032907;28;20276;-74
2022/02/07 06:52:40;;;;;;;9.53;2.47;;;23.60;56.80;;;;;;5033288;28;20226;-74
2022/02/07 06:55:08;;;;;;;9.83;1.83;;;23.50;56.10;;;;;;5036988;28;20611;-73
2022/02/07 06:57:36;;;;;;;9.77;1.60;;;23.60;55.80;;;;;;5033033;28;20266;-74
2022/02/07 07:00:09;;;;;;;8.20;1.63;;;23.60;55.80;;;;;;5033123;28;20177;-77
2022/02/07 07:02:38;;;;;;;14.60;2.13;;;23.50;56.20;;;;;;5031355;28;20238;-73
2022/02/07 07:05:10;;;;;;;10.57;2.07;;;23.10;57.50;;;;;;5034069;28;20517;-73
2022/02/07 07:07:38;;;;;;;8.67;2.00;;;23.00;57.30;;;;;;5035274;28;20188;-73
2022/02/07 07:10:08;;;;;;;8.83;1.53;;;23.10;57.70;;;;;;5036621;28;20177;-74
2022/02/07 07:12:36;;;;;;;7.37;1.80;;;23.00;58.40;;;;;;5033294;28;20180;-73
2022/02/07 07:17:32;;;;;;;14.90;1.93;;;23.00;57.90;;;;;;5033671;28;20219;-72
2022/02/07 07:20:02;;;;;;;7.93;1.87;;;22.80;59.40;;;;;;5034286;28;20561;-73
2022/02/07 07:22:31;;;;;;;13.60;2.40;;;22.80;58.60;;;;;;5032620;28;20176;-74
2022/02/07 07:24:59;;;;;;;10.50;1.70;;;22.70;58.10;;;;;;5036157;28;20181;-73
2022/02/07 07:27:31;;;;;;;11.57;1.87;;;22.80;58.40;;;;;;5033213;28;20179;-74
2022/02/07 07:29:59;;;;;;;8.17;1.57;;;22.60;58.40;;;;;;5028106;28;20185;-74
2022/02/07 07:32:30;;;;;;;5.77;1.73;;;22.50;58.20;;;;;;5036251;28;20177;-77
2022/02/07 07:34:57;;;;;;;9.13;1.70;;;22.40;58.60;;;;;;5032208;28;20215;-75
2022/02/07 07:37:25;;;;;;;11.97;1.90;;;22.40;59.20;;;;;;5032155;28;20212;-74
2022/02/07 07:39:53;;;;;;;7.87;1.93;;;22.30;59.60;;;;;;5032844;28;20172;-72
2022/02/07 07:42:20;;;;;;;10.87;1.83;;;22.50;59.00;;;;;;5035124;28;20224;-73
2022/02/07 07:44:49;;;;;;;7.90;2.00;;;23.40;57.20;;;;;;5030516;28;20249;-72
2022/02/07 07:47:23;;;;;;;5.27;2.20;;;23.40;56.40;;;;;;5028061;28;20215;-74
2022/02/07 07:50:18;;;;;;;8.90;1.73;;;23.10;57.40;;;;;;5032854;28;20643;-72
2022/02/07 07:53:17;;;;;;;7.23;1.57;;;22.80;58.50;;;;;;5032512;28;20205;-72
2022/02/07 08:03:46;;;;;;;9.03;1.77;;;22.20;63.10;;;;;;5030984;28;20231;-76
2022/02/07 08:06:21;;;;;;;11.67;2.23;;;21.80;66.80;;;;;;5027925;28;20208;-76
2022/02/07 08:09:17;;;;;;;7.07;2.00;;;21.60;68.20;;;;;;5031380;28;20176;-74
2022/02/07 08:11:46;;;;;;;5.80;1.87;;;21.50;69.50;;;;;;5031002;28;20185;-76
2022/02/07 08:14:13;;;;;;;10.67;2.50;;;21.30;71.00;;;;;;5032438;28;20192;-75
2022/02/07 08:16:40;;;;;;;8.27;1.57;;;21.30;71.30;;;;;;5034141;28;20299;-74
2022/02/07 08:19:08;;;;;;;8.83;1.53;;;21.30;71.30;;;;;;5032845;28;20187;-76
2022/02/07 08:21:36;;;;;;;6.37;2.10;;;21.30;71.70;;;;;;5035552;28;20185;-74
2022/02/07 08:24:06;;;;;;;13.07;2.20;;;21.20;71.60;;;;;;5031420;28;20584;-75
2022/02/07 08:26:33;;;;;;;13.87;2.20;;;21.20;71.50;;;;;;5032252;28;20548;-74
2022/02/07 08:29:01;;;;;;;11.43;2.23;;;21.30;72.00;;;;;;5032187;28;20180;-74
2022/02/07 08:31:28;;;;;;;7.33;2.00;;;21.30;71.40;;;;;;5033152;28;20270;-74
2022/02/07 08:33:56;;;;;;;10.03;2.40;;;21.40;72.20;;;;;;5028312;28;20263;-74
2022/02/07 08:36:23;;;;;;;6.90;1.80;;;21.30;69.50;;;;;;5031546;28;20370;-75
2022/02/07 08:38:50;;;;;;;13.97;2.03;;;21.40;69.60;;;;;;5032357;28;20190;-73
2022/02/07 08:41:18;;;;;;;11.57;2.20;;;21.40;68.40;;;;;;5032977;28;20273;-75
2022/02/07 08:43:45;;;;;;;8.17;1.83;;;21.50;65.40;;;;;;5037576;28;20230;-74
2022/02/07 08:46:13;;;;;;;8.30;1.90;;;21.50;64.40;;;;;;5028171;28;20698;-74
2022/02/07 08:48:41;;;;;;;8.33;1.93;;;21.50;63.70;;;;;;5030021;28;20180;-73
2022/02/07 08:51:09;;;;;;;8.80;2.37;;;21.50;63.20;;;;;;5030805;28;20751;-74
2022/02/07 08:53:41;;;;;;;7.27;1.90;;;21.40;62.20;;;;;;5032695;28;20181;-75
2022/02/07 08:56:10;;;;;;;11.17;2.63;;;21.30;62.20;;;;;;5028271;28;20221;-72
2022/02/07 08:58:41;;;;;;;6.80;2.77;;;21.30;62.20;;;;;;5035447;28;20208;-74
2022/02/07 09:01:20;;;;;;;10.17;2.90;;;21.30;62.30;;;;;;5035745;28;20192;-74
2022/02/07 09:09:05;;;;;;;8.30;1.70;;;21.20;62.10;;;;;;5031256;28;20186;-74
2022/02/07 09:11:32;;;;;;;7.33;1.93;;;21.20;61.70;;;;;;5030819;28;20271;-76
2022/02/07 09:14:10;;;;;;;10.40;2.10;;;21.20;61.80;;;;;;5031870;28;20176;-73
2022/02/07 09:16:39;;;;;;;6.87;1.50;;;21.10;62.70;;;;;;5060114;28;20220;-74
2022/02/07 09:19:08;;;;;;;6.57;1.83;;;21.20;62.50;;;;;;5034726;28;20188;-74
2022/02/07 09:21:36;;;;;;;8.30;1.80;;;21.10;63.20;;;;;;5036525;28;20239;-74
2022/02/07 09:24:04;;;;;;;9.13;2.37;;;21.10;63.60;;;;;;5035911;28;20602;-73
2022/02/07 09:26:32;;;;;;;11.00;2.60;;;21.10;63.70;;;;;;5040169;28;20697;-74
2022/02/07 09:29:00;;;;;;;11.67;2.67;;;21.10;64.10;;;;;;5037370;28;20215;-73
2022/02/07 09:31:28;;;;;;;14.20;2.10;;;21.20;64.00;;;;;;5034444;28;20544;-72
2022/02/07 09:33:55;;;;;;;8.83;2.67;;;21.20;63.80;;;;;;5032751;28;20593;-73
2022/02/07 09:36:25;;;;;;;11.07;2.40;;;21.10;63.20;;;;;;5031911;28;20200;-73
2022/02/07 09:38:53;;;;;;;10.87;2.10;;;21.10;63.50;;;;;;5032414;28;20185;-72
2022/02/07 09:41:22;;;;;;;12.33;2.00;;;21.10;63.60;;;;;;5031576;28;20220;-74
2022/02/07 09:43:51;;;;;;;12.63;1.67;;;21.20;63.10;;;;;;5028678;28;20177;-74
2022/02/07 09:46:23;;;;;;;9.90;1.67;;;21.10;63.70;;;;;;5030207;28;20650;-73
2022/02/07 09:48:51;;;;;;;10.80;1.93;;;21.10;64.10;;;;;;5028430;28;20653;-73
2022/02/07 09:51:19;;;;;;;9.20;1.97;;;21.00;64.30;;;;;;5028622;28;20188;-73
2022/02/07 09:53:48;;;;;;;12.33;2.73;;;21.00;64.90;;;;;;5037914;28;20270;-74
2022/02/07 09:56:16;;;;;;;9.30;2.20;;;21.00;64.80;;;;;;5035775;28;20878;-72
2022/02/07 09:58:49;;;;;;;16.10;2.30;;;20.90;65.20;;;;;;5036646;28;20191;-72
2022/02/07 10:01:25;;;;;;;11.13;2.63;;;20.80;65.00;;;;;;5032704;28;20190;-73
2022/02/07 10:04:01;;;;;;;11.37;2.23;;;20.80;65.50;;;;;;5039041;28;20219;-73
2022/02/07 10:06:37;;;;;;;15.03;2.40;;;20.80;65.80;;;;;;5035285;28;20180;-72
2022/02/07 10:09:20;;;;;;;14.80;5.00;;;20.80;65.60;;;;;;5038087;28;20173;-72
2022/02/07 10:14:43;;;;;;;14.23;2.57;;;20.80;65.60;;;;;;5037139;28;20173;-73
2022/02/07 10:17:29;;;;;;;10.77;2.07;;;20.80;65.20;;;;;;5035386;28;20217;-73
2022/02/07 10:20:38;;;;;;;9.73;1.77;;;20.80;65.10;;;;;;5035160;28;20653;-73
2022/02/07 10:34:46;;;;;;;11.97;1.90;;;20.80;64.20;;;;;;5037168;28;20610;-73
2022/02/07 10:46:14;;;;;;;8.30;2.03;;;20.90;62.00;;;;;;5034787;28;20250;-73
2022/02/07 10:48:44;;;;;;;9.97;1.90;;;20.90;61.70;;;;;;5032893;28;20180;-73
2022/02/07 10:51:28;;;;;;;9.27;1.63;;;20.90;62.10;;;;;;5033621;28;20188;-74
2022/02/07 10:53:59;;;;;;;5.13;1.57;;;20.80;62.10;;;;;;5031935;28;20214;-74
2022/02/07 10:56:38;;;;;;;11.70;1.90;;;20.80;62.30;;;;;;5033620;28;20292;-74
2022/02/07 10:59:08;;;;;;;8.07;1.87;;;20.80;62.70;;;;;;5034048;28;20180;-75
2022/02/07 11:02:03;;;;;;;12.13;1.93;;;20.90;62.00;;;;;;5031137;28;20173;-73
2022/02/07 11:04:57;;;;;;;8.67;1.70;;;20.70;68.40;;;;;;5030350;28;20264;-74
2022/02/07 11:07:19;;;;;;;6.07;1.50;;;20.30;70.70;;;;;;5027031;28;20188;-75
2022/02/07 11:15:13;;;;;;;8.23;1.70;;;19.90;73.70;;;;;;5031598;28;20177;-74
2022/02/07 11:18:10;;;;;;;5.70;1.40;;;19.90;74.10;;;;;;5033263;28;20212;-74
2022/02/07 11:20:52;;;;;;;6.73;1.60;;;19.80;74.50;;;;;;5029319;28;20188;-74
2022/02/07 11:23:27;;;;;;;8.13;1.53;;;19.70;75.00;;;;;;5031901;28;20180;-73
2022/02/07 11:26:14;;;;;;;8.53;1.43;;;19.60;75.40;;;;;;5034225;28;20180;-73
2022/02/07 11:28:43;;;;;;;7.70;1.80;;;19.60;75.50;;;;;;5027042;28;20177;-73
2022/02/07 11:31:11;;;;;;;12.40;2.40;;;19.50;75.90;;;;;;5032686;28;20192;-73
2022/02/07 11:33:52;;;;;;;11.77;2.57;;;19.30;76.00;;;;;;5033456;28;20184;-73
2022/02/07 11:36:34;;;;;;;9.77;1.70;;;19.30;76.30;;;;;;5031256;28;20211;-72
2022/02/07 11:39:07;;;;;;;8.87;1.53;;;19.30;76.70;;;;;;5031203;28;20180;-74
2022/02/07 11:41:54;;;;;;;9.57;1.80;;;19.20;77.00;;;;;;5032900;28;20687;-74
2022/02/07 11:44:31;;;;;;;10.07;1.93;;;19.20;76.60;;;;;;5029097;28;20653;-77
2022/02/07 11:47:26;;;;;;;7.23;1.50;;;19.20;76.60;;;;;;5030469;28;20263;-74
2022/02/07 11:49:59;;;;;;;5.37;1.60;;;19.10;76.40;;;;;;5031120;28;20594;-73
2022/02/07 11:52:45;;;;;;;6.33;1.70;;;19.10;76.70;;;;;;5032864;28;20230;-73
2022/02/07 11:55:22;;;;;;;5.93;1.50;;;19.10;76.60;;;;;;5032654;28;20196;-74
2022/02/07 11:58:05;;;;;;;6.37;2.30;;;19.00;76.30;;;;;;5032041;28;20208;-74
2022/02/07 12:00:36;;;;;;;5.90;1.50;;;19.00;76.30;;;;;;5032649;28;20210;-74
2022/02/07 12:03:08;;;;;;;4.70;1.47;;;18.90;75.70;;;;;;5027427;28;20196;-74
2022/02/07 12:05:46;;;;;;;7.40;1.60;;;19.00;75.70;;;;;;5032720;28;20275;-73
2022/02/07 12:08:18;;;;;;;8.23;1.60;;;19.00;75.80;;;;;;5031967;28;20180;-73
2022/02/07 12:11:04;;;;;;;6.97;1.60;;;19.00;75.30;;;;;;5032877;28;20605;-74
2022/02/07 12:13:43;;;;;;;5.23;1.37;;;19.00;74.80;;;;;;5032381;28;20643;-74
2022/02/07 12:16:15;;;;;;;9.47;1.63;;;19.00;75.00;;;;;;5031008;28;20200;-73
2022/02/07 12:18:46;;;;;;;8.80;1.60;;;19.00;75.10;;;;;;5032543;28;20184;-73
2022/02/07 12:21:17;;;;;;;5.77;1.87;;;19.00;75.30;;;;;;5031920;28;20173;-74
2022/02/07 12:23:48;;;;;;;6.67;1.63;;;19.00;75.30;;;;;;5032295;28;20651;-76
2022/02/07 12:26:17;;;;;;;4.80;1.47;;;19.00;75.10;;;;;;5028766;28;20195;-74
2022/02/07 12:28:48;;;;;;;6.57;1.50;;;19.00;75.50;;;;;;5029011;28;20180;-76
2022/02/07 12:31:21;;;;;;;6.47;1.50;;;19.00;75.50;;;;;;5031634;28;20188;-79
2022/02/07 12:34:01;;;;;;;11.07;1.57;;;19.00;75.70;;;;;;5030294;28;20180;-74
2022/02/07 12:36:31;;;;;;;5.80;1.70;;;19.00;76.10;;;;;;5030632;28;20269;-76
2022/02/07 12:39:01;;;;;;;9.23;1.70;;;18.90;75.90;;;;;;5031486;28;20180;-75
2022/02/07 12:41:30;;;;;;;4.63;1.13;;;18.90;76.20;;;;;;5031997;28;20227;-74
2022/02/07 12:43:58;;;;;;;5.07;1.80;;;18.90;76.10;;;;;;5031890;28;20184;-74
2022/02/07 12:46:28;;;;;;;8.67;2.07;;;18.90;76.40;;;;;;5031587;28;20219;-76
2022/02/07 12:49:01;;;;;;;11.80;2.53;;;18.90;76.70;;;;;;5027512;28;20176;-76
2022/02/07 12:51:30;;;;;;;8.83;1.97;;;18.90;78.10;;;;;;5032275;28;20654;-80
2022/02/07 12:53:58;;;;;;;5.13;1.43;;;18.80;79.50;;;;;;5031851;28;20176;-77
2022/02/07 12:56:28;;;;;;;8.27;1.60;;;18.70;81.40;;;;;;5031846;28;20196;-76
2022/02/07 12:58:56;;;;;;;4.70;1.40;;;18.50;81.60;;;;;;5031925;28;20263;-77
2022/02/07 13:01:27;;;;;;;9.43;1.60;;;18.30;82.60;;;;;;5031155;28;20192;-76
2022/02/07 13:03:57;;;;;;;6.43;1.40;;;18.30;83.50;;;;;;5031648;28;20220;-77
2022/02/07 13:06:49;;;;;;;7.17;1.70;;;18.20;84.10;;;;;;5029997;28;20202;-77
2022/02/07 13:09:25;;;;;;;5.53;1.60;;;18.10;84.90;;;;;;5027578;28;20203;-75
2022/02/07 13:14:48;;;;;;;7.57;2.10;;;18.00;86.00;;;;;;5028009;28;20176;-76
2022/02/07 13:17:22;;;;;;;7.73;1.80;;;17.90;86.40;;;;;;5030052;28;20219;-76
2022/02/07 13:19:51;;;;;;;11.80;1.97;;;17.90;86.80;;;;;;5031739;28;20234;-74
2022/02/07 13:22:21;;;;;;;8.27;1.87;;;17.90;87.60;;;;;;5030448;28;20279;-78
2022/02/07 13:24:55;;;;;;;9.93;1.93;;;17.80;87.50;;;;;;5031399;28;20262;-75
2022/02/07 13:27:24;;;;;;;5.20;1.70;;;17.80;87.40;;;;;;5031106;28;20185;-77
2022/02/07 13:29:57;;;;;;;6.60;1.70;;;17.70;88.10;;;;;;5033506;28;20283;-74
2022/02/07 13:32:30;;;;;;;9.23;2.03;;;17.70;87.80;;;;;;5035035;28;20220;-75
2022/02/07 13:35:11;;;;;;;7.93;1.50;;;17.70;88.50;;;;;;5034827;28;20188;-78
2022/02/07 13:37:40;;;;;;;8.40;1.97;;;17.60;88.70;;;;;;5033308;28;20564;-83
2022/02/07 13:40:12;;;;;;;6.50;1.50;;;17.70;89.50;;;;;;5034730;28;20198;-83
2022/02/07 13:42:40;;;;;;;7.63;1.50;;;17.60;89.60;;;;;;5034496;28;20256;-83
2022/02/07 13:45:16;;;;;;;9.27;2.33;;;17.60;89.80;;;;;;5034726;28;20224;-82
2022/02/07 13:47:50;;;;;;;9.63;2.00;;;17.70;89.90;;;;;;5031611;28;20192;-80
2022/02/07 13:50:20;;;;;;;6.63;1.83;;;17.70;90.30;;;;;;5033508;28;20192;-83
2022/02/07 13:52:49;;;;;;;5.43;1.60;;;17.80;90.20;;;;;;5031427;28;20184;-81
2022/02/07 13:55:35;;;;;;;7.67;2.00;;;17.80;90.20;;;;;;5034596;28;20693;-83
2022/02/07 13:58:23;;;;;;;7.47;1.80;;;17.80;90.60;;;;;;5034665;28;20598;-80
2022/02/07 14:00:51;;;;;;;9.30;2.10;;;17.90;90.80;;;;;;5032314;28;20168;-81
2022/02/07 14:03:23;;;;;;;9.30;2.20;;;18.20;89.80;;;;;;5030427;28;20247;-79
2022/02/07 14:06:15;;;;;;;6.77;1.70;;;18.40;88.50;;;;;;5032697;28;20665;-81
2022/02/07 14:08:43;;;;;;;5.80;1.50;;;18.50;88.10;;;;;;5034806;28;21035;-79
2022/02/07 14:11:25;;;;;;;10.10;1.93;;;18.50;87.30;;;;;;5033656;28;20223;-82
2022/02/07 14:13:55;;;;;;;4.87;1.27;;;18.20;87.70;;;;;;5033845;28;20526;-76
2022/02/07 14:16:25;;;;;;;6.53;1.43;;;17.80;88.30;;;;;;5034486;28;20268;-79
2022/02/07 14:18:54;;;;;;;10.27;1.93;;;17.60;89.20;;;;;;5032841;28;20172;-83
2022/02/07 14:21:35;;;;;;;6.20;1.63;;;17.60;89.80;;;;;;5034777;28;20234;-78
2022/02/07 14:24:02;;;;;;;9.63;1.90;;;17.50;90.60;;;;;;5033409;28;20195;-83
2022/02/07 14:26:36;;;;;;;9.37;1.77;;;17.40;90.70;;;;;;5034529;28;20211;-79
2022/02/07 14:29:07;;;;;;;6.17;1.70;;;17.40;91.00;;;;;;5031906;28;20639;-78
2022/02/07 14:31:35;;;;;;;7.37;1.70;;;17.30;91.00;;;;;;5033143;28;21467;-78
2022/02/07 14:34:02;;;;;;;11.10;2.20;;;17.40;91.20;;;;;;5032974;28;20173;-76
2022/02/07 14:36:32;;;;;;;10.47;1.83;;;17.40;91.60;;;;;;5032901;28;20200;-76
2022/02/07 14:39:00;;;;;;;6.30;1.63;;;17.30;90.90;;;;;;5033553;28;20669;-73
2022/02/07 14:41:28;;;;;;;5.47;1.60;;;17.10;91.00;;;;;;5032470;28;20756;-73
2022/02/07 14:44:00;;;;;;;7.53;1.93;;;17.00;91.20;;;;;;5032762;28;20207;-74
2022/02/07 14:46:35;;;;;;;4.93;1.47;;;17.00;92.10;;;;;;5033693;28;20203;-73
2022/02/07 14:49:03;;;;;;;6.80;1.90;;;16.90;91.80;;;;;;5031480;28;20223;-73
2022/02/07 14:51:30;;;;;;;5.20;1.60;;;16.80;92.10;;;;;;5033751;28;20199;-74
2022/02/07 14:53:57;;;;;;;6.97;1.40;;;16.80;92.10;;;;;;5033949;28;20200;-73
2022/02/07 14:56:25;;;;;;;7.67;1.53;;;16.80;92.20;;;;;;5033383;28;20314;-75
2022/02/07 14:58:53;;;;;;;7.80;1.70;;;16.80;92.50;;;;;;5033487;28;20192;-74
2022/02/07 15:01:21;;;;;;;7.83;1.67;;;16.70;92.40;;;;;;5033439;28;20176;-73
2022/02/07 15:03:49;;;;;;;7.13;1.50;;;16.80;92.50;;;;;;5030927;28;20191;-74
2022/02/07 15:06:18;;;;;;;7.50;1.53;;;16.80;92.40;;;;;;5028337;28;20176;-75
2022/02/07 15:08:46;;;;;;;8.83;1.70;;;16.80;92.50;;;;;;5033314;28;20190;-74
2022/02/07 15:11:16;;;;;;;4.43;1.27;;;16.80;92.40;;;;;;5033358;28;20184;-75
2022/02/07 15:13:43;;;;;;;6.57;1.60;;;16.80;92.50;;;;;;5033472;28;20183;-74